Time;durP1;ratioP1;P1;durP2;ratioP2;P2;SDS_P1;SDS_P2;PMS_P1;PMS_P2;Temp;Humidity;BMP_temperature;BMP_pressure;BME280_temperature;BME280_humidity;BME280_pressure;Samples;Min_cycle;Max_cycle;Signal;HPM_P1;HPM_P2
2024/01/14 00:01:53;;;;;;;12.73;2.78;;;5.40;99.90;;;;;;5070999;28;20044;-70
2024/01/14 00:04:18;;;;;;;12.82;2.92;;;5.40;99.90;;;;;;5053095;28;20396;-71
2024/01/14 00:06:45;;;;;;;20.13;2.42;;;5.40;99.90;;;;;;5071393;28;20041;-70
2024/01/14 00:09:12;;;;;;;14.52;3.17;;;5.30;99.90;;;;;;5074293;28;20040;-70
2024/01/14 00:11:38;;;;;;;10.60;2.55;;;5.20;99.90;;;;;;5056263;28;20044;-70
2024/01/14 00:14:04;;;;;;;14.88;3.15;;;5.30;99.90;;;;;;5056593;28;20396;-70
2024/01/14 00:16:36;;;;;;;16.95;3.22;;;5.20;99.90;;;;;;5056259;28;20041;-70
2024/01/14 00:19:02;;;;;;;6.93;2.47;;;5.30;99.90;;;;;;5074180;28;20127;-70
2024/01/14 00:21:28;;;;;;;13.93;2.40;;;5.10;99.90;;;;;;5056226;28;20496;-71
2024/01/14 00:23:53;;;;;;;14.15;5.43;;;5.40;99.90;;;;;;5074129;28;20124;-70
2024/01/14 00:26:20;;;;;;;14.18;3.85;;;5.30;99.90;;;;;;5055917;28;20093;-71
2024/01/14 00:28:46;;;;;;;11.15;2.30;;;5.10;99.90;;;;;;5056131;28;20048;-71
2024/01/14 00:31:12;;;;;;;13.52;2.67;;;5.10;99.90;;;;;;5056006;28;20043;-71
2024/01/14 00:33:40;;;;;;;9.77;2.58;;;5.30;99.90;;;;;;5074112;28;20115;-71
2024/01/14 00:36:06;;;;;;;8.05;2.45;;;5.20;99.90;;;;;;5055911;28;20045;-71
2024/01/14 00:38:32;;;;;;;8.98;1.90;;;5.20;99.90;;;;;;5055610;28;20086;-71
2024/01/14 00:40:58;;;;;;;12.30;1.60;;;5.00;99.90;;;;;;5073645;28;20411;-71
2024/01/14 00:43:23;;;;;;;8.95;1.50;;;5.30;99.90;;;;;;5074007;28;20634;-71
2024/01/14 00:45:49;;;;;;;8.02;1.80;;;5.10;99.90;;;;;;5072312;28;20043;-71
2024/01/14 00:48:14;;;;;;;6.65;1.13;;;5.20;99.90;;;;;;5072837;28;20504;-71
2024/01/14 00:50:40;;;;;;;6.63;1.20;;;5.10;99.90;;;;;;5073403;28;20119;-71
2024/01/14 00:53:06;;;;;;;8.60;2.00;;;5.00;99.90;;;;;;5073404;28;20040;-71
2024/01/14 00:55:31;;;;;;;5.90;2.17;;;5.00;99.90;;;;;;5073320;28;20041;-71
2024/01/14 00:57:57;;;;;;;7.97;2.65;;;5.00;99.90;;;;;;5073289;28;20499;-71
2024/01/14 01:00:24;;;;;;;4.95;1.27;;;5.00;99.90;;;;;;5073584;28;20499;-71
2024/01/14 01:02:50;;;;;;;5.43;1.50;;;4.80;99.90;;;;;;5055675;28;20037;-71
2024/01/14 01:05:15;;;;;;;7.38;1.50;;;5.00;99.90;;;;;;5055462;28;20408;-71
2024/01/14 01:07:41;;;;;;;8.32;1.75;;;4.90;99.90;;;;;;5073042;28;20098;-71
2024/01/14 01:10:07;;;;;;;5.53;1.73;;;4.90;99.90;;;;;;5072872;28;20036;-71
2024/01/14 01:12:32;;;;;;;13.73;1.40;;;5.00;99.90;;;;;;5073290;28;20499;-71
2024/01/14 01:14:58;;;;;;;4.75;1.05;;;5.00;99.90;;;;;;5073389;28;20044;-71
2024/01/14 01:17:23;;;;;;;8.73;1.50;;;4.90;99.90;;;;;;5072975;28;20404;-71
2024/01/14 01:19:49;;;;;;;11.15;1.55;;;4.90;99.90;;;;;;5072945;28;20040;-71
2024/01/14 01:22:14;;;;;;;5.30;1.35;;;4.70;99.90;;;;;;5073192;28;20524;-71
2024/01/14 01:24:40;;;;;;;7.32;1.13;;;4.80;99.90;;;;;;5072892;28;20094;-71
2024/01/14 01:27:06;;;;;;;6.57;1.50;;;4.80;99.90;;;;;;5072946;28;20044;-71
2024/01/14 01:29:32;;;;;;;6.55;2.10;;;5.00;99.90;;;;;;5072803;28;20545;-71
2024/01/14 01:31:57;;;;;;;5.00;1.52;;;4.60;99.90;;;;;;5072832;28;20082;-71
2024/01/14 01:34:23;;;;;;;6.57;2.42;;;4.70;99.90;;;;;;5072996;28;20070;-71
2024/01/14 01:36:48;;;;;;;12.30;1.33;;;4.70;99.90;;;;;;5072684;28;20448;-71
2024/01/14 01:39:15;;;;;;;10.95;1.48;;;4.70;99.90;;;;;;5072427;28;20044;-71
2024/01/14 01:41:40;;;;;;;6.35;1.15;;;4.70;99.90;;;;;;5072711;28;20045;-71
2024/01/14 01:44:06;;;;;;;9.95;1.58;;;5.00;99.90;;;;;;5054962;28;20040;-71
2024/01/14 01:46:34;;;;;;;6.05;1.33;;;4.90;99.90;;;;;;5072445;28;20089;-71
2024/01/14 01:49:00;;;;;;;3.97;1.30;;;4.80;99.90;;;;;;5072397;28;20037;-71
2024/01/14 01:51:26;;;;;;;13.90;1.95;;;4.70;99.90;;;;;;5054383;28;20036;-70
2024/01/14 01:53:52;;;;;;;9.80;2.40;;;4.70;99.90;;;;;;5054501;28;20082;-71
2024/01/14 01:56:18;;;;;;;11.20;1.95;;;4.90;99.90;;;;;;5072274;28;20123;-71
2024/01/14 01:58:44;;;;;;;9.50;1.88;;;4.70;99.90;;;;;;5054376;28;20044;-70
2024/01/14 02:01:10;;;;;;;16.27;1.67;;;4.70;99.90;;;;;;5072257;28;20059;-71
2024/01/14 02:03:36;;;;;;;7.72;2.00;;;4.80;99.90;;;;;;5054294;28;20048;-71
2024/01/14 02:06:02;;;;;;;7.65;1.77;;;4.50;99.90;;;;;;5072163;28;20122;-71
2024/01/14 02:08:28;;;;;;;12.50;2.65;;;4.50;99.90;;;;;;5053807;28;20076;-71
2024/01/14 02:10:54;;;;;;;7.35;2.20;;;4.30;99.90;;;;;;5072130;28;20538;-71
2024/01/14 02:13:20;;;;;;;6.28;2.28;;;4.50;99.90;;;;;;5054076;28;20511;-71
2024/01/14 02:15:45;;;;;;;9.05;1.73;;;4.70;99.90;;;;;;5072080;28;20078;-71
2024/01/14 02:18:11;;;;;;;15.30;1.52;;;4.70;99.90;;;;;;5053762;28;20131;-71
2024/01/14 02:20:37;;;;;;;9.13;1.73;;;4.40;99.90;;;;;;5071864;28;20047;-71
2024/01/14 02:23:06;;;;;;;9.55;1.92;;;4.30;99.90;;;;;;5072283;28;20102;-71
2024/01/14 02:25:32;;;;;;;6.78;1.50;;;4.60;99.90;;;;;;5072044;28;20059;-71
2024/01/14 02:27:58;;;;;;;11.15;1.70;;;4.50;99.90;;;;;;5071440;28;20048;-71
2024/01/14 02:30:23;;;;;;;11.75;2.20;;;4.40;99.90;;;;;;5071345;28;20036;-71
2024/01/14 02:32:50;;;;;;;11.57;2.42;;;4.20;99.90;;;;;;5071797;28;20120;-71
2024/01/14 02:35:16;;;;;;;7.05;1.65;;;4.30;99.90;;;;;;5053627;28;20555;-71
2024/01/14 02:37:44;;;;;;;8.05;1.67;;;4.40;99.90;;;;;;5071552;28;20131;-71
2024/01/14 02:40:11;;;;;;;14.75;2.00;;;4.20;99.90;;;;;;5053597;28;20521;-71
2024/01/14 02:42:38;;;;;;;9.68;2.15;;;4.30;99.90;;;;;;5053681;28;20044;-71
2024/01/14 02:45:04;;;;;;;23.33;3.88;;;4.20;99.90;;;;;;5053646;28;20040;-71
2024/01/14 02:47:30;;;;;;;16.23;2.38;;;4.50;99.90;;;;;;5071433;28;20048;-71
2024/01/14 02:49:55;;;;;;;14.98;3.42;;;4.30;99.90;;;;;;5071184;28;20123;-71
2024/01/14 02:52:21;;;;;;;9.27;2.83;;;4.30;99.90;;;;;;5053622;28;20518;-71
2024/01/14 02:54:47;;;;;;;8.38;1.92;;;4.30;99.90;;;;;;5071389;28;20037;-71
2024/01/14 02:57:12;;;;;;;11.45;2.90;;;4.50;99.90;;;;;;5071537;28;20038;-71
2024/01/14 02:59:38;;;;;;;12.68;2.55;;;4.10;99.90;;;;;;5071341;28;20041;-71
2024/01/14 03:02:03;;;;;;;8.25;1.58;;;4.10;99.90;;;;;;5071445;28;20120;-71
2024/01/14 03:04:29;;;;;;;13.52;2.03;;;4.10;99.90;;;;;;5053325;28;20037;-71
2024/01/14 03:06:55;;;;;;;17.85;3.08;;;4.10;99.90;;;;;;5071483;28;20452;-71
2024/01/14 03:09:21;;;;;;;14.35;2.67;;;4.40;99.90;;;;;;5071230;28;20043;-71
2024/01/14 03:11:47;;;;;;;8.30;1.77;;;4.30;99.90;;;;;;5071530;28;20040;-71
2024/01/14 03:14:12;;;;;;;18.83;2.97;;;4.40;99.90;;;;;;5071473;28;20407;-71
2024/01/14 03:16:38;;;;;;;13.70;2.88;;;4.40;99.90;;;;;;5071278;28;20037;-71
2024/01/14 03:19:03;;;;;;;6.03;2.38;;;4.30;99.90;;;;;;5071015;28;20041;-71
2024/01/14 03:21:29;;;;;;;12.15;2.97;;;4.40;99.90;;;;;;5071484;28;20036;-71
2024/01/14 03:23:55;;;;;;;12.52;2.75;;;4.00;99.90;;;;;;5071489;28;20078;-71
2024/01/14 03:26:20;;;;;;;14.60;2.53;;;4.20;99.90;;;;;;5053233;28;20036;-71
2024/01/14 03:28:46;;;;;;;10.38;3.42;;;3.90;99.90;;;;;;5071144;28;20037;-71
2024/01/14 03:31:15;;;;;;;12.43;2.30;;;4.10;99.90;;;;;;5071289;28;20040;-71
2024/01/14 03:33:44;;;;;;;7.22;2.22;;;4.00;99.90;;;;;;5071130;28;20036;-71
2024/01/14 03:36:16;;;;;;;8.48;1.85;;;4.00;99.90;;;;;;5071305;28;20135;-71
2024/01/14 03:38:43;;;;;;;15.32;3.25;;;4.30;99.90;;;;;;5070989;28;20047;-71
2024/01/14 03:41:08;;;;;;;16.30;2.08;;;4.30;99.90;;;;;;5053208;28;20041;-71
2024/01/14 03:43:34;;;;;;;16.80;2.15;;;4.20;99.90;;;;;;5074902;28;20531;-71
2024/01/14 03:45:59;;;;;;;13.27;2.08;;;4.30;99.90;;;;;;5074902;28;20045;-71
2024/01/14 03:48:25;;;;;;;9.65;2.47;;;4.10;99.90;;;;;;5074510;28;20048;-71
2024/01/14 03:50:51;;;;;;;16.27;2.53;;;4.20;99.90;;;;;;5112151;22;20039;-75
2024/01/14 03:53:16;;;;;;;15.40;3.35;;;4.20;99.90;;;;;;5117114;28;20388;-75
2024/01/14 03:55:42;;;;;;;4.70;1.85;;;4.10;99.90;;;;;;5098661;28;20411;-76
2024/01/14 03:58:08;;;;;;;17.02;2.22;;;4.10;99.90;;;;;;5081335;28;20065;-75
2024/01/14 04:00:34;;;;;;;11.15;2.83;;;4.00;99.90;;;;;;5114271;28;20039;-75
2024/01/14 04:02:59;;;;;;;16.15;3.33;;;4.00;99.90;;;;;;5115488;28;20040;-75
2024/01/14 04:05:25;;;;;;;13.27;2.53;;;4.10;99.90;;;;;;5117024;28;20075;-75
2024/01/14 04:07:51;;;;;;;13.85;2.00;;;4.00;99.90;;;;;;5096705;28;20410;-75
2024/01/14 04:10:16;;;;;;;12.70;2.33;;;4.10;99.90;;;;;;5115071;28;20039;-75
2024/01/14 04:12:42;;;;;;;11.57;2.33;;;3.90;99.90;;;;;;5115589;28;20574;-75
2024/01/14 04:15:09;;;;;;;10.15;1.75;;;4.30;99.90;;;;;;5099331;28;20043;-75
2024/01/14 04:17:35;;;;;;;10.38;2.88;;;4.10;99.90;;;;;;5098489;28;20126;-75
2024/01/14 04:20:01;;;;;;;15.23;3.15;;;4.20;99.90;;;;;;5117562;28;20440;-75
2024/01/14 04:22:26;;;;;;;7.15;2.42;;;4.00;99.90;;;;;;5097844;28;20068;-75
2024/01/14 04:24:52;;;;;;;12.75;2.17;;;4.20;99.90;;;;;;5097641;28;20048;-74
2024/01/14 04:27:18;;;;;;;11.43;3.35;;;4.00;99.90;;;;;;5096627;28;20046;-75
2024/01/14 04:29:44;;;;;;;15.95;2.47;;;4.10;99.90;;;;;;5115446;28;20036;-75
2024/01/14 04:32:10;;;;;;;9.35;2.00;;;3.80;99.90;;;;;;5115863;28;20156;-75
2024/01/14 04:34:36;;;;;;;8.48;2.80;;;4.00;99.90;;;;;;5097668;28;20055;-75
2024/01/14 04:37:02;;;;;;;12.73;2.20;;;3.70;99.90;;;;;;5097796;28;20035;-75
2024/01/14 04:39:28;;;;;;;12.57;2.35;;;4.00;99.90;;;;;;5116866;28;20452;-75
2024/01/14 04:41:54;;;;;;;18.38;2.50;;;3.90;99.90;;;;;;5114513;28;20050;-75
2024/01/14 04:44:20;;;;;;;10.07;2.25;;;4.00;99.90;;;;;;5114609;28;20043;-75
2024/01/14 04:46:45;;;;;;;12.10;2.83;;;3.80;99.90;;;;;;5116634;28;20069;-75
2024/01/14 04:49:11;;;;;;;12.57;2.42;;;3.70;99.90;;;;;;5098066;28;20042;-75
2024/01/14 04:51:38;;;;;;;13.63;2.22;;;4.00;99.90;;;;;;5098098;28;20036;-75
2024/01/14 04:54:03;;;;;;;16.15;2.00;;;3.70;99.90;;;;;;5095720;28;20095;-75
2024/01/14 04:56:29;;;;;;;11.88;2.55;;;3.80;99.90;;;;;;5096081;28;20127;-74
2024/01/14 04:58:55;;;;;;;9.52;3.28;;;4.00;99.90;;;;;;5095748;28;20411;-75
2024/01/14 05:01:20;;;;;;;15.32;2.50;;;3.60;99.90;;;;;;5114364;28;20180;-75
2024/01/14 05:03:46;;;;;;;7.97;2.13;;;3.90;99.90;;;;;;5114331;28;20028;-75
2024/01/14 05:06:12;;;;;;;8.63;1.50;;;3.90;99.90;;;;;;5079682;28;20096;-75
2024/01/14 05:08:41;;;;;;;16.38;3.65;;;3.60;99.90;;;;;;5114437;28;20089;-76
2024/01/14 05:11:07;;;;;;;10.80;2.03;;;3.60;99.90;;;;;;5095870;28;20404;-75
2024/01/14 05:13:32;;;;;;;15.55;2.45;;;4.00;99.90;;;;;;5114578;28;20042;-76
2024/01/14 05:15:58;;;;;;;12.15;3.17;;;3.90;99.90;;;;;;5114641;28;20047;-75
2024/01/14 05:18:23;;;;;;;13.07;4.10;;;3.80;99.90;;;;;;5096556;28;20453;-75
2024/01/14 05:20:49;;;;;;;15.45;3.13;;;3.80;99.90;;;;;;5096053;28;20047;-75
2024/01/14 05:23:15;;;;;;;17.38;3.20;;;3.60;99.90;;;;;;5113743;28;20051;-75
2024/01/14 05:25:41;;;;;;;13.38;2.00;;;3.80;99.90;;;;;;5095347;28;20039;-75
2024/01/14 05:28:07;;;;;;;12.07;3.08;;;3.70;99.90;;;;;;5095079;28;20051;-75
2024/01/14 05:30:33;;;;;;;15.30;2.53;;;3.50;99.90;;;;;;5113751;28;20032;-75
2024/01/14 05:32:58;;;;;;;10.68;2.28;;;3.90;99.90;;;;;;5115433;28;20534;-75
2024/01/14 05:35:24;;;;;;;9.85;2.05;;;3.60;99.90;;;;;;5115290;28;20032;-75
2024/01/14 05:37:50;;;;;;;9.93;2.17;;;3.70;99.90;;;;;;5114059;28;20398;-75
2024/01/14 05:40:15;;;;;;;7.88;2.53;;;3.70;99.90;;;;;;5113976;28;20066;-75
2024/01/14 05:42:42;;;;;;;14.52;2.05;;;3.50;99.90;;;;;;5114219;28;20088;-75
2024/01/14 05:45:10;;;;;;;10.02;1.75;;;3.70;99.90;;;;;;5113860;28;20040;-74
2024/01/14 05:47:36;;;;;;;6.40;2.40;;;3.50;99.90;;;;;;5113409;28;20414;-75
2024/01/14 05:50:01;;;;;;;10.50;2.35;;;3.60;99.90;;;;;;5095794;28;20039;-75
2024/01/14 05:52:27;;;;;;;10.02;1.88;;;3.50;99.90;;;;;;5095704;28;20050;-75
2024/01/14 05:54:53;;;;;;;15.02;2.40;;;3.70;99.90;;;;;;5094788;28;20085;-77
2024/01/14 05:57:18;;;;;;;10.30;1.90;;;3.50;99.90;;;;;;5078212;28;20055;-75
2024/01/14 05:59:44;;;;;;;11.13;2.65;;;3.50;99.90;;;;;;5113084;28;20031;-77
2024/01/14 06:02:09;;;;;;;9.25;2.17;;;3.30;99.90;;;;;;5113747;28;20067;-77
2024/01/14 06:04:35;;;;;;;18.75;2.67;;;3.30;99.90;;;;;;5096310;28;20039;-77
2024/01/14 06:07:01;;;;;;;13.30;4.90;;;3.60;99.90;;;;;;5114792;28;20040;-75
2024/01/14 06:09:26;;;;;;;12.02;3.35;;;3.30;99.90;;;;;;5112762;28;20032;-75
2024/01/14 06:11:52;;;;;;;16.35;3.10;;;3.50;99.90;;;;;;5094736;28;20047;-74
2024/01/14 06:14:18;;;;;;;9.50;2.25;;;3.50;99.90;;;;;;5114925;28;20403;-75
2024/01/14 06:16:44;;;;;;;13.60;2.78;;;3.60;99.90;;;;;;5114629;28;20039;-75
2024/01/14 06:19:09;;;;;;;9.63;2.55;;;3.60;99.90;;;;;;5114596;28;20486;-75
2024/01/14 06:21:42;;;;;;;15.93;2.28;;;3.70;99.90;;;;;;5112650;28;20414;-75
2024/01/14 06:24:08;;;;;;;17.38;3.63;;;3.40;99.90;;;;;;5112614;28;20039;-75
2024/01/14 06:26:34;;;;;;;9.25;2.03;;;3.40;99.90;;;;;;5112835;28;20644;-75
2024/01/14 06:28:59;;;;;;;15.98;2.60;;;3.50;99.90;;;;;;5094373;28;20051;-77
2024/01/14 06:31:25;;;;;;;12.80;2.03;;;3.70;99.90;;;;;;5112564;28;20039;-75
2024/01/14 06:33:51;;;;;;;15.63;3.42;;;3.50;99.90;;;;;;5096397;28;20040;-77
2024/01/14 06:36:20;;;;;;;10.07;2.33;;;3.40;99.90;;;;;;5112499;28;20545;-75
2024/01/14 06:38:46;;;;;;;11.43;2.60;;;3.70;99.90;;;;;;5093835;28;20068;-75
2024/01/14 06:41:19;;;;;;;15.82;2.92;;;3.80;99.90;;;;;;5094082;28;20043;-75
2024/01/14 06:43:45;;;;;;;14.95;2.80;;;3.60;99.90;;;;;;5095955;28;20043;-75
2024/01/14 06:46:11;;;;;;;11.93;2.45;;;3.60;99.90;;;;;;5095189;28;20047;-75
2024/01/14 06:48:37;;;;;;;11.50;2.50;;;3.50;99.90;;;;;;5113777;28;20040;-75
2024/01/14 06:51:02;;;;;;;16.83;2.13;;;3.70;99.90;;;;;;5094741;28;20039;-74
2024/01/14 06:53:28;;;;;;;15.40;3.08;;;3.40;99.90;;;;;;5118921;28;20529;-75
2024/01/14 06:55:54;;;;;;;8.13;2.05;;;3.70;99.90;;;;;;5095159;28;20116;-75
2024/01/14 06:58:20;;;;;;;17.00;2.53;;;3.30;99.90;;;;;;5094150;28;20123;-76
2024/01/14 07:00:45;;;;;;;20.35;3.65;;;3.60;99.90;;;;;;5095196;28;20108;-77
2024/01/14 07:03:11;;;;;;;13.18;2.58;;;3.30;99.90;;;;;;5113397;28;20512;-75
2024/01/14 07:05:36;;;;;;;10.20;2.70;;;3.60;99.90;;;;;;5113522;28;20027;-75
2024/01/14 07:08:04;;;;;;;10.95;2.50;;;3.80;99.90;;;;;;5095008;28;20035;-75
2024/01/14 07:10:30;;;;;;;11.77;3.45;;;3.30;99.90;;;;;;5112232;28;20514;-75
2024/01/14 07:12:56;;;;;;;16.38;2.60;;;3.30;99.90;;;;;;5112830;28;20028;-74
2024/01/14 07:15:22;;;;;;;19.27;2.30;;;3.60;99.90;;;;;;5112705;28;20528;-75
2024/01/14 07:17:49;;;;;;;10.13;1.95;;;3.20;99.90;;;;;;5084508;28;20043;-75
2024/01/14 07:20:14;;;;;;;18.67;2.28;;;3.60;99.90;;;;;;5099322;28;20050;-75
2024/01/14 07:22:40;;;;;;;10.50;2.75;;;3.10;99.90;;;;;;5099223;28;20036;-75
2024/01/14 07:25:06;;;;;;;11.65;2.55;;;3.60;99.90;;;;;;5098002;28;20038;-74
2024/01/14 07:27:33;;;;;;;9.18;2.15;;;3.40;99.90;;;;;;5097604;28;20104;-74
2024/01/14 07:29:59;;;;;;;14.93;2.33;;;3.50;99.90;;;;;;5099021;28;20110;-74
2024/01/14 07:32:24;;;;;;;12.93;2.50;;;3.70;99.90;;;;;;5099573;28;20597;-75
2024/01/14 07:34:50;;;;;;;18.73;2.72;;;3.40;99.90;;;;;;5098821;28;20510;-75
2024/01/14 07:37:15;;;;;;;13.25;3.58;;;3.20;99.90;;;;;;5097520;28;20036;-77
2024/01/14 07:39:41;;;;;;;10.93;2.55;;;3.50;99.90;;;;;;5116961;28;20415;-77
2024/01/14 07:42:07;;;;;;;15.60;2.55;;;3.30;99.90;;;;;;5115928;28;20046;-75
2024/01/14 07:44:32;;;;;;;13.32;3.15;;;3.50;99.90;;;;;;5097256;28;20083;-74
2024/01/14 07:46:58;;;;;;;13.23;2.40;;;3.50;99.90;;;;;;5115856;28;20043;-75
2024/01/14 07:49:23;;;;;;;9.27;2.50;;;3.50;99.90;;;;;;5098171;28;20053;-75
2024/01/14 07:51:49;;;;;;;12.05;2.88;;;3.30;99.90;;;;;;5097622;28;20047;-75
2024/01/14 07:54:15;;;;;;;14.25;2.95;;;3.20;99.90;;;;;;5097308;28;20498;-75
2024/01/14 07:56:40;;;;;;;8.02;1.63;;;3.50;99.90;;;;;;5116801;28;20083;-76
2024/01/14 07:59:06;;;;;;;10.13;2.92;;;3.20;99.90;;;;;;5081629;28;20414;-76
2024/01/14 08:01:31;;;;;;;12.25;1.58;;;3.20;99.90;;;;;;5117631;28;20043;-76
2024/01/14 08:03:57;;;;;;;12.13;3.05;;;3.50;99.90;;;;;;5100210;28;20188;-76
2024/01/14 08:06:24;;;;;;;13.57;2.92;;;3.30;99.90;;;;;;5117821;28;20153;-77
2024/01/14 08:08:49;;;;;;;14.85;3.05;;;3.40;99.90;;;;;;5098468;28;20062;-76
2024/01/14 08:11:16;;;;;;;12.25;2.55;;;3.30;99.90;;;;;;5100220;28;20031;-77
2024/01/14 08:13:42;;;;;;;11.75;1.83;;;3.30;99.90;;;;;;5080917;28;20039;-77
2024/01/14 08:16:08;;;;;;;11.80;3.20;;;3.60;99.90;;;;;;5082200;28;20059;-77
2024/01/14 08:18:34;;;;;;;11.55;3.08;;;3.30;99.90;;;;;;5100352;28;20043;-76
2024/01/14 08:21:00;;;;;;;5.65;1.73;;;3.50;99.90;;;;;;5097938;28;20426;-76
2024/01/14 08:23:28;;;;;;;12.38;2.00;;;3.80;99.90;;;;;;5079833;28;20092;-76
2024/01/14 08:25:54;;;;;;;9.70;2.00;;;3.60;99.90;;;;;;5115375;28;20039;-76
2024/01/14 08:28:20;;;;;;;12.13;2.63;;;3.40;99.90;;;;;;5113832;28;20039;-76
2024/01/14 08:30:46;;;;;;;15.45;2.72;;;3.50;99.90;;;;;;5114667;28;20035;-75
2024/01/14 08:33:11;;;;;;;9.85;2.05;;;3.50;99.90;;;;;;5114787;28;20092;-76
2024/01/14 08:35:37;;;;;;;8.93;2.17;;;3.50;99.90;;;;;;5117683;28;20039;-77
2024/01/14 08:38:03;;;;;;;11.48;2.90;;;3.10;99.90;;;;;;5096588;28;20043;-76
2024/01/14 08:40:29;;;;;;;7.18;1.60;;;3.50;99.90;;;;;;5096466;28;20124;-76
2024/01/14 08:42:55;;;;;;;7.63;2.22;;;3.20;99.90;;;;;;5092655;28;20027;-76
2024/01/14 08:45:20;;;;;;;11.52;2.53;;;3.30;99.90;;;;;;5080456;28;20032;-76
2024/01/14 08:47:46;;;;;;;5.45;1.42;;;3.40;99.90;;;;;;5098491;28;20205;-76
2024/01/14 08:50:12;;;;;;;8.43;1.85;;;3.40;99.90;;;;;;5077522;28;20104;-77
2024/01/14 08:52:38;;;;;;;13.30;3.03;;;3.00;99.90;;;;;;5088827;28;20080;-77
2024/01/14 08:55:05;;;;;;;5.57;1.40;;;3.10;99.90;;;;;;5100312;28;20114;-76
2024/01/14 08:57:30;;;;;;;12.70;1.90;;;3.50;99.90;;;;;;5097633;28;20086;-75
2024/01/14 08:59:57;;;;;;;11.18;1.90;;;3.10;99.90;;;;;;5102939;28;20531;-76
2024/01/14 09:02:23;;;;;;;7.30;1.48;;;3.50;99.90;;;;;;5097978;28;20066;-77
2024/01/14 09:04:48;;;;;;;10.65;2.13;;;3.50;99.90;;;;;;5109810;28;20035;-77
2024/01/14 09:07:14;;;;;;;6.47;1.92;;;3.50;99.90;;;;;;5079230;28;20067;-77
2024/01/14 09:09:40;;;;;;;11.90;1.88;;;3.50;99.90;;;;;;5095821;28;20036;-78
2024/01/14 09:12:05;;;;;;;8.68;2.10;;;3.60;99.90;;;;;;5096804;28;20100;-77
2024/01/14 09:14:31;;;;;;;10.73;2.05;;;3.60;99.90;;;;;;5097051;28;20037;-78
2024/01/14 09:16:57;;;;;;;4.35;1.83;;;3.30;99.90;;;;;;5115531;28;20050;-77
2024/01/14 09:19:23;;;;;;;9.35;2.15;;;3.30;99.90;;;;;;5095417;28;20043;-78
2024/01/14 09:21:51;;;;;;;16.10;2.42;;;3.40;99.90;;;;;;5116258;28;20075;-79
2024/01/14 09:24:17;;;;;;;9.75;2.97;;;3.30;99.90;;;;;;5098360;28;20051;-79
2024/01/14 09:26:43;;;;;;;9.77;1.92;;;3.80;99.90;;;;;;5099552;28;20096;-78
2024/01/14 09:29:08;;;;;;;8.30;1.75;;;3.70;99.90;;;;;;5099648;28;20027;-78
2024/01/14 09:31:34;;;;;;;14.85;2.75;;;3.80;99.90;;;;;;5102474;28;20081;-78
2024/01/14 09:33:59;;;;;;;8.35;1.73;;;3.90;99.90;;;;;;5098892;28;20063;-77
2024/01/14 09:36:27;;;;;;;11.88;2.13;;;4.00;99.90;;;;;;5116719;28;20031;-77
2024/01/14 09:38:54;;;;;;;5.97;1.65;;;3.80;99.90;;;;;;5120740;28;20430;-78
2024/01/14 09:41:46;;;;;;;10.60;1.67;;;3.80;99.90;;;;;;5118850;28;20031;-77
2024/01/14 09:44:15;;;;;;;11.93;1.63;;;4.10;99.90;;;;;;5104731;28;20039;-78
2024/01/14 09:46:44;;;;;;;10.45;1.60;;;3.90;99.90;;;;;;5117662;28;20040;-77
2024/01/14 09:49:10;;;;;;;11.13;1.67;;;4.20;99.90;;;;;;5098559;28;20114;-77
2024/01/14 09:51:37;;;;;;;9.25;1.95;;;3.80;99.90;;;;;;5111448;22;20460;-76
2024/01/14 09:54:02;;;;;;;12.15;4.10;;;4.00;99.90;;;;;;5094812;28;20031;-77
2024/01/14 09:56:31;;;;;;;10.18;3.13;;;4.20;99.90;;;;;;5095216;28;20104;-76
2024/01/14 09:58:58;;;;;;;12.38;1.77;;;4.10;99.90;;;;;;5102086;28;20047;-76
2024/01/14 10:01:30;;;;;;;11.25;3.17;;;4.20;99.90;;;;;;5098289;28;20051;-77
2024/01/14 10:04:00;;;;;;;9.63;1.75;;;4.20;99.90;;;;;;5111933;28;20040;-76
2024/01/14 10:06:29;;;;;;;7.60;1.73;;;4.10;99.90;;;;;;5111355;28;20039;-75
2024/01/14 10:08:56;;;;;;;14.18;2.17;;;4.30;99.90;;;;;;5085264;28;20051;-75
2024/01/14 10:11:21;;;;;;;6.55;1.85;;;4.30;99.90;;;;;;5106743;28;20059;-75
2024/01/14 10:13:49;;;;;;;13.82;3.38;;;4.40;99.90;;;;;;5104662;28;20491;-75
2024/01/14 10:16:15;;;;;;;8.18;1.70;;;4.40;99.90;;;;;;5091554;28;20495;-75
2024/01/14 10:18:40;;;;;;;6.32;2.00;;;4.50;99.90;;;;;;5090030;28;20446;-74
2024/01/14 10:21:06;;;;;;;11.27;2.33;;;4.50;99.90;;;;;;5091268;28;20047;-74
2024/01/14 10:23:32;;;;;;;11.32;2.00;;;4.60;99.90;;;;;;5090982;28;20036;-75
2024/01/14 10:26:01;;;;;;;11.63;2.28;;;4.30;99.90;;;;;;5090931;28;20044;-75
2024/01/14 10:28:34;;;;;;;8.40;2.20;;;4.50;99.90;;;;;;5090560;28;20045;-76
2024/01/14 10:31:01;;;;;;;9.00;1.73;;;4.40;99.90;;;;;;5091157;28;20040;-76
2024/01/14 10:33:32;;;;;;;13.57;4.00;;;4.60;99.90;;;;;;5088930;28;20040;-76
2024/01/14 10:35:58;;;;;;;11.43;2.53;;;4.60;99.90;;;;;;5082459;28;20062;-75
2024/01/14 10:38:23;;;;;;;14.75;3.97;;;4.70;99.90;;;;;;5089109;28;20044;-75
2024/01/14 10:40:49;;;;;;;11.45;1.85;;;4.70;99.90;;;;;;5084056;28;20040;-75
2024/01/14 10:43:15;;;;;;;9.57;1.92;;;4.60;99.90;;;;;;5090945;28;20079;-74
2024/01/14 10:45:40;;;;;;;10.52;2.15;;;4.60;99.90;;;;;;5090879;28;20044;-75
2024/01/14 10:48:10;;;;;;;9.23;1.98;;;4.50;99.90;;;;;;5090360;28;20039;-74
2024/01/14 10:50:36;;;;;;;10.10;1.85;;;4.50;99.90;;;;;;5090090;28;20032;-75
2024/01/14 10:53:07;;;;;;;11.93;2.75;;;4.50;99.90;;;;;;5090207;28;20118;-74
2024/01/14 10:55:49;;;;;;;9.73;2.03;;;4.60;99.90;;;;;;5089670;28;20431;-75
2024/01/14 10:58:39;;;;;;;10.73;1.77;;;4.90;99.90;;;;;;5072658;28;20036;-74
2024/01/14 11:01:08;;;;;;;6.68;1.40;;;4.70;99.90;;;;;;5092425;28;20043;-74
2024/01/14 11:03:35;;;;;;;11.52;2.42;;;4.70;99.90;;;;;;5078298;28;20108;-75
2024/01/14 11:06:02;;;;;;;8.93;2.00;;;5.00;99.90;;;;;;5100196;28;20031;-77
2024/01/14 11:08:28;;;;;;;11.60;2.10;;;5.00;99.90;;;;;;5111745;28;20399;-76
2024/01/14 11:10:55;;;;;;;7.15;2.28;;;5.00;99.90;;;;;;5102294;28;20457;-76
2024/01/14 11:13:44;;;;;;;9.18;1.88;;;5.20;99.90;;;;;;5104885;28;20050;-76
2024/01/14 11:16:13;;;;;;;11.55;2.22;;;5.00;99.90;;;;;;5092774;28;20039;-75
2024/01/14 11:18:49;;;;;;;8.95;2.30;;;5.00;99.90;;;;;;5109869;28;20047;-75
2024/01/14 11:21:36;;;;;;;9.65;1.50;;;5.10;99.90;;;;;;5099469;28;20050;-75
2024/01/14 11:24:02;;;;;;;7.75;1.88;;;5.50;99.90;;;;;;5106472;28;20048;-77
2024/01/14 11:26:28;;;;;;;7.82;1.50;;;5.50;99.90;;;;;;5100420;28;20043;-76
2024/01/14 11:28:57;;;;;;;10.23;1.83;;;5.30;99.90;;;;;;5111446;28;20032;-75
2024/01/14 11:32:01;;;;;;;13.77;1.73;;;5.30;99.90;;;;;;5111715;28;20547;-75
2024/01/14 11:34:47;;;;;;;11.85;2.03;;;5.40;99.90;;;;;;5111252;28;20044;-76
2024/01/14 11:37:35;;;;;;;2.92;1.38;;;5.40;99.90;;;;;;5093345;28;20082;-76
2024/01/14 11:40:06;;;;;;;11.48;2.45;;;5.40;99.90;;;;;;5111019;28;20044;-75
2024/01/14 11:42:33;;;;;;;6.53;1.52;;;5.50;99.90;;;;;;5108552;28;20061;-76
2024/01/14 11:45:24;;;;;;;8.93;1.83;;;5.60;99.90;;;;;;5089960;28;20410;-77
2024/01/14 11:47:52;;;;;;;5.22;1.70;;;5.40;99.90;;;;;;5103147;28;20124;-76
2024/01/14 11:50:24;;;;;;;5.32;2.17;;;5.40;99.90;;;;;;5090992;28;20449;-75
2024/01/14 11:52:53;;;;;;;8.90;1.42;;;5.40;99.90;;;;;;5107071;28;20495;-75
2024/01/14 11:55:26;;;;;;;9.35;1.90;;;5.40;99.90;;;;;;5110340;28;20035;-76
2024/01/14 11:57:53;;;;;;;6.20;1.77;;;5.40;99.90;;;;;;5110659;28;20135;-76
2024/01/14 12:00:24;;;;;;;5.88;1.50;;;5.70;99.90;;;;;;5101473;28;20388;-74
2024/01/14 12:03:10;;;;;;;9.18;1.67;;;5.50;99.90;;;;;;5084015;28;20067;-76
2024/01/14 12:05:36;;;;;;;13.50;2.50;;;5.60;99.90;;;;;;5092020;28;20036;-74
2024/01/14 12:08:03;;;;;;;8.30;1.30;;;5.60;99.90;;;;;;5091998;28;20032;-77
2024/01/14 12:10:31;;;;;;;9.32;1.27;;;5.70;99.90;;;;;;5094583;28;20067;-76
2024/01/14 12:12:57;;;;;;;7.32;1.65;;;5.80;99.90;;;;;;5095083;28;20111;-76
2024/01/14 12:15:23;;;;;;;13.32;2.72;;;5.70;99.90;;;;;;5093692;28;20079;-77
2024/01/14 12:17:57;;;;;;;6.25;1.45;;;5.80;99.90;;;;;;5093416;28;20672;-76
2024/01/14 12:20:24;;;;;;;7.78;1.50;;;5.90;99.90;;;;;;5094525;28;20098;-77
2024/01/14 12:23:02;;;;;;;11.52;1.95;;;5.80;99.90;;;;;;5093421;28;20079;-76
2024/01/14 12:25:28;;;;;;;7.63;2.67;;;5.60;99.90;;;;;;5094696;28;20048;-76
2024/01/14 12:27:54;;;;;;;4.65;1.42;;;5.60;99.90;;;;;;5093169;28;20491;-76
2024/01/14 12:30:37;;;;;;;9.10;1.60;;;5.60;99.90;;;;;;5093870;28;20073;-76
2024/01/14 12:33:04;;;;;;;6.15;1.60;;;5.80;99.90;;;;;;5108513;28;20051;-76
2024/01/14 12:35:33;;;;;;;6.35;1.90;;;5.60;99.90;;;;;;5090213;28;20520;-76
2024/01/14 12:37:59;;;;;;;10.35;1.48;;;5.80;99.90;;;;;;5093780;28;20040;-75
2024/01/14 12:40:26;;;;;;;9.43;2.00;;;5.70;99.90;;;;;;5092318;28;20047;-76
2024/01/14 12:42:52;;;;;;;9.85;1.55;;;5.60;99.90;;;;;;5093857;28;20111;-76
2024/01/14 12:45:17;;;;;;;4.70;1.88;;;5.80;99.90;;;;;;5092765;28;20474;-76
2024/01/14 12:47:43;;;;;;;5.90;1.33;;;5.70;99.90;;;;;;5093011;28;20124;-76
2024/01/14 12:50:09;;;;;;;8.20;1.38;;;5.70;99.90;;;;;;5094031;28;20496;-76